createdAt,value
2019-02-20T00:00:58.717Z,100722.03
2019-02-20T00:02:06.641Z,100713.25
2019-02-20T00:03:12.322Z,100718.52
2019-02-20T00:04:18.031Z,100720.72
2019-02-20T00:05:24.401Z,100721.19
2019-02-20T00:06:30.883Z,100724.70
2019-02-20T00:07:37.820Z,100724.28
2019-02-20T00:08:43.467Z,100729.97
2019-02-20T00:09:50.079Z,100726.88
2019-02-20T00:10:57.229Z,100732.13
2019-02-20T00:12:04.480Z,100729.50
2019-02-20T00:13:11.121Z,100730.81
2019-02-20T00:14:18.773Z,100732.55
2019-02-20T00:15:26.350Z,100730.81
2019-02-20T00:16:33.419Z,100727.30
2019-02-20T00:17:40.370Z,100726.87
2019-02-20T00:18:47.514Z,100731.23
2019-02-20T00:19:53.847Z,100730.34
2019-02-20T00:21:00.832Z,100729.45
2019-02-20T00:22:08.709Z,100728.18
2019-02-20T00:23:15.854Z,100729.97
2019-02-20T00:24:22.290Z,100729.50
2019-02-20T00:25:30.279Z,100726.88
2019-02-20T00:26:37.477Z,100727.34
2019-02-20T00:27:44.007Z,100732.13
2019-02-20T00:28:50.195Z,100730.86
2019-02-20T00:29:55.893Z,100728.23
2019-02-20T00:31:02.485Z,100733.95
2019-02-20T00:32:08.470Z,100734.80
2019-02-20T00:33:14.190Z,100734.38
2019-02-20T00:34:19.870Z,100733.48
2019-02-20T00:35:25.584Z,100741.42
2019-02-20T00:36:32.112Z,100746.69
2019-02-20T00:37:38.013Z,100741.00
2019-02-20T00:38:44.094Z,100735.70
2019-02-20T00:39:51.769Z,100745.33
2019-02-20T00:40:57.673Z,100742.70
2019-02-20T00:42:03.352Z,100742.27
2019-02-20T00:43:11.226Z,100745.32
2019-02-20T00:44:21.308Z,100742.69
2019-02-20T00:45:28.604Z,100739.64
2019-02-20T00:46:35.900Z,100747.10
2019-02-20T00:47:50.127Z,100743.54
2019-02-20T00:48:57.387Z,100744.43
2019-02-20T00:50:04.224Z,100738.24
2019-02-20T00:51:24.088Z,100737.81
2019-02-20T00:52:50.162Z,100737.81
2019-02-20T00:53:58.208Z,100741.34
2019-02-20T00:55:05.040Z,100736.08
2019-02-20T00:56:11.361Z,100746.13
2019-02-20T00:57:17.041Z,100741.80
2019-02-20T00:58:23.750Z,100747.48
2019-02-20T00:59:29.907Z,100739.59
2019-02-20T01:00:36.380Z,100747.48
2019-02-20T01:01:43.756Z,100748.33
2019-02-20T01:02:49.810Z,100742.56
2019-02-20T01:03:55.487Z,100747.81
2019-02-20T01:05:01.221Z,100753.00
2019-02-20T01:06:07.487Z,100744.22
2019-02-20T01:07:13.172Z,100745.54
2019-02-20T01:08:18.871Z,100745.54
2019-02-20T01:09:24.569Z,100742.48
2019-02-20T01:10:30.243Z,100737.18
2019-02-20T01:11:37.258Z,100743.34
2019-02-20T01:12:43.164Z,100731.92
2019-02-20T01:13:49.743Z,100727.98
2019-02-20T01:14:56.847Z,100736.75
2019-02-20T01:16:02.545Z,100735.44
2019-02-20T01:17:08.228Z,100738.91
2019-02-20T01:18:14.211Z,100728.31
2019-02-20T01:19:20.677Z,100735.77
2019-02-20T01:20:26.343Z,100731.31
2019-02-20T01:21:33.069Z,100737.89
2019-02-20T01:22:39.219Z,100739.55
2019-02-20T01:23:45.710Z,100741.32
2019-02-20T01:24:51.867Z,100750.86
2019-02-20T01:25:59.143Z,100749.11
2019-02-20T01:27:05.829Z,100749.07
2019-02-20T01:28:11.505Z,100752.59
2019-02-20T01:29:17.167Z,100755.22
2019-02-20T01:30:22.841Z,100748.22
2019-02-20T01:31:28.546Z,100756.55
2019-02-20T01:32:34.235Z,100753.48
2019-02-20T01:33:39.910Z,100757.05
2019-02-20T01:34:47.201Z,100762.73
2019-02-20T01:35:54.544Z,100758.31
2019-02-20T01:37:01.150Z,100759.17
2019-02-20T01:38:08.195Z,100755.22
2019-02-20T01:39:13.865Z,100749.50
2019-02-20T01:40:19.541Z,100753.44
2019-02-20T01:41:25.208Z,100747.30
2019-02-20T01:42:30.887Z,100755.60
2019-02-20T01:43:37.857Z,100760.44
2019-02-20T01:44:44.342Z,100753.86
2019-02-20T01:45:50.352Z,100761.75
2019-02-20T01:46:56.020Z,100757.81
2019-02-20T01:48:03.430Z,100757.84
2019-02-20T01:49:09.260Z,100758.31
2019-02-20T01:50:15.973Z,100753.86
2019-02-20T01:51:22.735Z,100755.64
2019-02-20T01:52:29.006Z,100756.95
2019-02-20T01:53:35.444Z,100752.13
2019-02-20T01:54:42.221Z,100753.44
2019-02-20T01:55:48.632Z,100756.02
2019-02-20T01:56:57.230Z,100755.60
2019-02-20T01:58:02.965Z,100755.17
2019-02-20T01:59:08.618Z,100757.80
2019-02-20T02:00:15.020Z,100752.55
2019-02-20T02:01:21.977Z,100752.08
2019-02-20T02:02:28.303Z,100758.64
2019-02-20T02:03:34.947Z,100748.13
2019-02-20T02:04:41.448Z,100754.70
2019-02-20T02:05:48.721Z,100759.59
2019-02-20T02:06:56.262Z,100754.75
2019-02-20T02:08:03.656Z,100755.18
2019-02-20T02:09:10.063Z,100753.91
2019-02-20T02:10:16.475Z,100754.75
2019-02-20T02:11:22.581Z,100758.70
2019-02-20T02:12:30.408Z,100750.34
2019-02-20T02:13:36.470Z,100751.66
2019-02-20T02:14:43.399Z,100754.70
2019-02-20T02:15:50.041Z,100758.22
2019-02-20T02:16:56.808Z,100756.86
2019-02-20T02:18:03.936Z,100764.75
2019-02-20T02:19:10.367Z,100759.91
2019-02-20T02:20:17.500Z,100758.18
2019-02-20T02:21:26.372Z,100755.13
2019-02-20T02:22:33.271Z,100753.40
2019-02-20T02:23:40.435Z,100759.53
2019-02-20T02:24:47.669Z,100759.55
2019-02-20T02:25:55.290Z,100764.00
2019-02-20T02:27:02.433Z,100766.63
2019-02-20T02:28:08.283Z,100767.94
2019-02-20T02:29:13.996Z,100766.63
2019-02-20T02:30:20.328Z,100763.53
2019-02-20T02:31:26.492Z,100759.59
2019-02-20T02:32:32.221Z,100763.11
2019-02-20T02:33:37.872Z,100763.11
2019-02-20T02:34:44.433Z,100757.38
2019-02-20T02:35:51.381Z,100754.29
2019-02-20T02:36:57.692Z,100754.29
2019-02-20T02:38:03.901Z,100755.18
2019-02-20T02:39:11.367Z,100757.38
2019-02-20T02:40:18.265Z,100760.44
2019-02-20T02:41:26.098Z,100764.84
2019-02-20T02:42:34.083Z,100763.95
2019-02-20T02:43:40.939Z,100771.88
2019-02-20T02:44:47.842Z,100768.38
2019-02-20T02:45:54.721Z,100767.95
2019-02-20T02:47:00.901Z,100776.30
2019-02-20T02:48:07.964Z,100777.14
2019-02-20T02:49:13.608Z,100774.14
2019-02-20T02:50:21.047Z,100770.62
2019-02-20T02:51:26.776Z,100777.66
2019-02-20T02:52:32.474Z,100771.94
2019-02-20T02:53:38.156Z,100780.20
2019-02-20T02:54:44.960Z,100774.95
2019-02-20T02:55:51.829Z,100768.83
2019-02-20T02:56:59.034Z,100774.95
2019-02-20T02:58:04.830Z,100770.58
2019-02-20T02:59:10.528Z,100772.77
2019-02-20T03:00:17.083Z,100781.98
2019-02-20T03:01:23.637Z,100782.41
2019-02-20T03:02:29.478Z,100776.72
2019-02-20T03:03:35.152Z,100780.71
2019-02-20T03:04:40.848Z,100775.92
2019-02-20T03:05:47.398Z,100781.61
2019-02-20T03:06:53.502Z,100779.86
2019-02-20T03:07:59.202Z,100782.06
2019-02-20T03:09:07.013Z,100783.81
2019-02-20T03:10:14.687Z,100778.55
2019-02-20T03:11:20.346Z,100783.81
2019-02-20T03:12:26.030Z,100775.93
2019-02-20T03:13:33.071Z,100779.44
2019-02-20T03:14:40.114Z,100772.41
2019-02-20T03:15:46.708Z,100780.28
2019-02-20T03:16:53.608Z,100782.02
2019-02-20T03:18:01.824Z,100788.09
2019-02-20T03:19:08.442Z,100783.30
2019-02-20T03:20:14.211Z,100784.14
2019-02-20T03:21:20.701Z,100788.12
2019-02-20T03:22:27.178Z,100779.77
2019-02-20T03:23:40.123Z,100785.87
2019-02-20T03:24:41.663Z,100788.45
2019-02-20T03:25:48.076Z,100794.51
2019-02-20T03:26:55.559Z,100788.35
2019-02-20T03:28:01.597Z,100792.72
2019-02-20T03:29:07.283Z,100787.84
2019-02-20T03:30:13.810Z,100796.09
2019-02-20T03:31:30.614Z,100795.20
2019-02-20T03:32:37.026Z,100800.36
2019-02-20T03:33:43.797Z,100794.59
2019-02-20T03:34:50.530Z,100790.63
2019-02-20T03:35:57.410Z,100794.95
2019-02-20T03:37:03.299Z,100795.36
2019-02-20T03:38:09.883Z,100793.96
2019-02-20T03:39:16.736Z,100803.20
2019-02-20T03:40:23.914Z,100804.56
2019-02-20T03:41:31.834Z,100811.97
2019-02-20T03:42:37.774Z,100808.41
2019-02-20T03:43:44.305Z,100807.51
2019-02-20T03:44:50.195Z,100800.00
2019-02-20T03:45:55.872Z,100797.74
2019-02-20T03:47:01.548Z,100798.12
2019-02-20T03:48:07.928Z,100802.94
2019-02-20T03:49:14.842Z,100799.78
2019-02-20T03:50:21.459Z,100798.84
2019-02-20T03:51:28.667Z,100805.84
2019-02-20T03:52:34.561Z,100798.37
2019-02-20T03:53:50.929Z,100801.80
2019-02-20T03:54:48.166Z,100803.94
2019-02-20T03:55:55.106Z,100804.41
2019-02-20T03:57:01.622Z,100803.52
2019-02-20T03:58:07.318Z,100800.84
2019-02-20T03:59:12.992Z,100801.25
2019-02-20T04:00:20.217Z,100802.09
2019-02-20T04:01:27.862Z,100792.91
2019-02-20T04:02:33.827Z,100789.34
2019-02-20T04:03:39.505Z,100798.06
2019-02-20T04:04:45.650Z,100798.52
2019-02-20T04:05:52.123Z,100798.05
2019-02-20T04:06:58.801Z,100801.56
2019-02-20T04:08:05.479Z,100797.62
2019-02-20T04:09:13.215Z,100795.84
2019-02-20T04:10:19.051Z,100798.95
2019-02-20T04:11:24.706Z,100804.20
2019-02-20T04:12:31.394Z,100796.73
2019-02-20T04:13:37.809Z,100791.91
2019-02-20T04:14:43.550Z,100795.84
2019-02-20T04:15:49.735Z,100794.47
2019-02-20T04:16:56.618Z,100791.33
2019-02-20T04:18:03.536Z,100792.16
2019-02-20T04:19:09.936Z,100794.78
2019-02-20T04:20:16.922Z,100787.33
2019-02-20T04:21:24.452Z,100789.48
2019-02-20T04:22:31.459Z,100792.11
2019-02-20T04:23:38.268Z,100789.47
2019-02-20T04:24:44.353Z,100785.95
2019-02-20T04:25:50.072Z,100788.95
2019-02-20T04:26:56.589Z,100789.37
2019-02-20T04:28:03.434Z,100781.03
2019-02-20T04:29:09.197Z,100785.02
2019-02-20T04:30:15.841Z,100786.28
2019-02-20T04:31:22.761Z,100788.11
2019-02-20T04:32:30.829Z,100791.16
2019-02-20T04:33:37.053Z,100788.53
2019-02-20T04:34:44.267Z,100784.59
2019-02-20T04:35:50.698Z,100783.75
2019-02-20T04:36:57.837Z,100788.11
2019-02-20T04:38:03.585Z,100788.17
2019-02-20T04:39:09.874Z,100782.03
2019-02-20T04:40:16.874Z,100781.19
2019-02-20T04:41:22.728Z,100785.17
2019-02-20T04:42:28.395Z,100786.50
2019-02-20T04:43:35.270Z,100796.63
2019-02-20T04:44:42.680Z,100795.78
2019-02-20T04:45:50.545Z,100794.53
2019-02-20T04:46:56.286Z,100794.13
2019-02-20T04:48:01.964Z,100795.00
2019-02-20T04:49:08.406Z,100796.33
2019-02-20T04:50:16.505Z,100791.50
2019-02-20T04:51:23.170Z,100800.36
2019-02-20T04:52:31.240Z,100801.62
2019-02-20T04:53:38.602Z,100800.69
2019-02-20T04:54:45.495Z,100812.50
2019-02-20T04:55:52.357Z,100807.30
2019-02-20T04:56:59.354Z,100807.72
2019-02-20T04:58:23.592Z,100812.97
2019-02-20T04:59:29.305Z,100809.98
2019-02-20T05:00:34.993Z,100816.13
2019-02-20T05:01:40.659Z,100819.23
2019-02-20T05:02:46.339Z,100817.96
2019-02-20T05:03:52.030Z,100814.08
2019-02-20T05:04:58.745Z,100817.17
2019-02-20T05:06:05.393Z,100816.70
2019-02-20T05:07:13.121Z,100820.22
2019-02-20T05:08:19.332Z,100825.95
2019-02-20T05:09:27.263Z,100817.97
2019-02-20T05:10:33.533Z,100816.66
2019-02-20T05:11:39.194Z,100814.39
2019-02-20T05:12:45.213Z,100812.61
2019-02-20T05:13:51.165Z,100809.50
2019-02-20T05:14:57.355Z,100811.55
2019-02-20T05:16:03.162Z,100821.52
2019-02-20T05:17:08.865Z,100815.73
2019-02-20T05:18:15.487Z,100819.62
2019-02-20T05:19:21.931Z,100817.36
2019-02-20T05:20:28.839Z,100815.61
2019-02-20T05:21:35.965Z,100818.67
2019-02-20T05:22:43.881Z,100815.16
2019-02-20T05:23:50.791Z,100816.93
2019-02-20T05:24:56.962Z,100823.03
2019-02-20T05:26:04.454Z,100817.84
2019-02-20T05:27:10.139Z,100809.16
2019-02-20T05:28:16.857Z,100816.63
2019-02-20T05:29:23.504Z,100820.62
2019-02-20T05:30:30.681Z,100821.04
2019-02-20T05:31:37.991Z,100821.93
2019-02-20T05:32:43.953Z,100832.38
2019-02-20T05:33:50.714Z,100816.16
2019-02-20T05:34:56.971Z,100838.47
2019-02-20T05:36:02.637Z,100814.31
2019-02-20T05:37:08.317Z,100831.80
2019-02-20T05:38:15.075Z,100837.05
2019-02-20T05:39:21.756Z,100828.28
2019-02-20T05:40:27.875Z,100834.84
2019-02-20T05:41:33.532Z,100846.65
2019-02-20T05:42:39.277Z,100844.02
2019-02-20T05:43:45.055Z,100843.97
2019-02-20T05:44:50.723Z,100851.36
2019-02-20T05:45:56.400Z,100857.92
2019-02-20T05:47:02.103Z,100857.39
2019-02-20T05:48:07.777Z,100852.49
2019-02-20T05:49:13.462Z,100863.73
2019-02-20T05:50:19.960Z,100861.98
2019-02-20T05:51:26.158Z,100847.49
2019-02-20T05:52:31.812Z,100845.70
2019-02-20T05:53:37.532Z,100838.08
2019-02-20T05:54:43.251Z,100847.61
2019-02-20T05:55:50.540Z,100849.63
2019-02-20T05:56:57.427Z,100846.35
2019-02-20T05:58:03.312Z,100850.56
2019-02-20T05:59:08.990Z,100840.37
2019-02-20T06:00:15.666Z,100846.39
2019-02-20T06:01:21.375Z,100848.46
2019-02-20T06:02:27.100Z,100859.66
2019-02-20T06:03:32.794Z,100862.16
2019-02-20T06:04:38.483Z,100866.44
2019-02-20T06:05:44.169Z,100869.89
2019-02-20T06:06:49.868Z,100875.61
2019-02-20T06:07:57.219Z,100876.55
2019-02-20T06:09:04.556Z,100875.25
2019-02-20T06:10:11.795Z,100879.17
2019-02-20T06:11:19.251Z,100873.59
2019-02-20T06:12:26.012Z,100871.46
2019-02-20T06:13:31.722Z,100873.72
2019-02-20T06:14:37.433Z,100871.17
2019-02-20T06:15:44.112Z,100877.80
2019-02-20T06:16:51.393Z,100878.34
2019-02-20T06:17:57.481Z,100884.54
2019-02-20T06:19:04.094Z,100882.46
2019-02-20T06:20:12.456Z,100889.94
2019-02-20T06:21:19.164Z,100890.45
2019-02-20T06:22:25.571Z,100886.12
2019-02-20T06:23:32.879Z,100896.72
2019-02-20T06:24:44.093Z,100898.11
2019-02-20T06:25:47.662Z,100894.64
2019-02-20T06:26:54.635Z,100896.03
2019-02-20T06:28:02.159Z,100892.56
2019-02-20T06:29:08.560Z,100892.16
2019-02-20T06:30:14.257Z,100891.37
2019-02-20T06:31:20.607Z,100887.93
2019-02-20T06:32:26.281Z,100887.56
2019-02-20T06:33:32.569Z,100892.41
2019-02-20T06:34:39.097Z,100889.84
2019-02-20T06:35:45.581Z,100894.69
2019-02-20T06:36:51.882Z,100888.59
2019-02-20T06:37:57.839Z,100888.59
2019-02-20T06:39:05.458Z,100899.09
2019-02-20T06:40:13.077Z,100894.73
2019-02-20T06:41:20.910Z,100897.30
2019-02-20T06:42:26.599Z,100896.45
2019-02-20T06:43:33.314Z,100900.39
2019-02-20T06:44:39.453Z,100897.36
2019-02-20T06:45:45.124Z,100902.67
2019-02-20T06:46:51.859Z,100902.78
2019-02-20T06:47:57.541Z,100901.48
2019-02-20T06:49:03.242Z,100901.12
2019-02-20T06:50:09.553Z,100898.09
2019-02-20T06:51:15.663Z,100909.90
2019-02-20T06:52:21.533Z,100905.13
2019-02-20T06:53:28.649Z,100898.51
2019-02-20T06:54:34.415Z,100899.82
2019-02-20T06:55:40.120Z,100902.50
2019-02-20T06:56:47.001Z,100899.92
2019-02-20T06:57:53.931Z,100897.25
2019-02-20T06:59:00.959Z,100897.25
2019-02-20T07:00:10.463Z,100909.48
2019-02-20T07:01:16.265Z,100912.09
2019-02-20T07:02:21.995Z,100911.69
2019-02-20T07:03:27.666Z,100913.06
2019-02-20T07:04:33.897Z,100913.06
2019-02-20T07:05:41.516Z,100918.30
2019-02-20T07:06:51.906Z,100914.72
2019-02-20T07:08:31.062Z,100912.51
2019-02-20T07:10:05.108Z,100908.52
2019-02-20T07:11:34.279Z,100913.72
2019-02-20T07:13:00.176Z,100906.73
2019-02-20T07:14:31.946Z,100907.26
2019-02-20T07:15:55.767Z,100909.13
2019-02-20T07:17:49.826Z,100914.13
2019-02-20T07:19:06.025Z,100909.47
2019-02-20T07:20:42.104Z,100915.33
2019-02-20T07:22:05.003Z,100914.08
2019-02-20T07:23:19.376Z,100914.19
2019-02-20T07:24:36.403Z,100920.28
2019-02-20T07:26:19.795Z,100917.17
2019-02-20T07:27:59.636Z,100916.69
2019-02-20T07:29:30.492Z,100919.19
2019-02-20T07:30:38.559Z,100919.52
2019-02-20T07:31:45.015Z,100932.58
2019-02-20T07:32:52.610Z,100930.77
2019-02-20T07:33:59.556Z,100933.88
2019-02-20T07:35:08.867Z,100933.39
2019-02-20T07:36:15.645Z,100948.75
2019-02-20T07:37:23.135Z,100947.95
2019-02-20T07:38:29.403Z,100940.62
2019-02-20T07:39:36.319Z,100954.36
2019-02-20T07:40:42.930Z,100953.65
2019-02-20T07:41:49.120Z,100949.03
2019-02-20T07:42:55.872Z,100958.30
2019-02-20T07:44:02.433Z,100954.09
2019-02-20T07:45:10.943Z,100958.22
2019-02-20T07:46:18.487Z,100955.39
2019-02-20T07:47:25.799Z,100959.51
2019-02-20T07:48:32.560Z,100964.45
2019-02-20T07:49:39.258Z,100957.56
2019-02-20T07:50:47.487Z,100956.73
2019-02-20T07:51:57.659Z,100965.09
2019-02-20T07:53:06.470Z,100959.36
2019-02-20T07:54:13.876Z,100959.83
2019-02-20T07:55:20.506Z,100958.41
2019-02-20T07:56:27.314Z,100960.52
2019-02-20T07:57:34.253Z,100964.89
2019-02-20T07:58:41.320Z,100963.09
2019-02-20T07:59:47.882Z,100965.23
2019-02-20T08:00:54.899Z,100962.55
2019-02-20T08:02:03.254Z,100967.33
2019-02-20T08:03:11.516Z,100963.81
2019-02-20T08:04:18.007Z,100960.82
2019-02-20T08:05:25.280Z,100958.88
2019-02-20T08:06:31.457Z,100948.17
2019-02-20T08:07:38.779Z,100958.53
2019-02-20T08:08:45.468Z,100951.30
2019-02-20T08:09:52.764Z,100957.92
2019-02-20T08:11:00.215Z,100969.82
2019-02-20T08:12:07.117Z,100967.66
2019-02-20T08:13:14.567Z,100968.03
2019-02-20T08:14:21.532Z,100970.14
2019-02-20T08:15:29.126Z,100979.23
2019-02-20T08:16:35.537Z,100975.20
2019-02-20T08:17:43.471Z,100972.09
2019-02-20T08:18:50.655Z,100980.84
2019-02-20T08:19:57.813Z,100982.20
2019-02-20T08:21:04.726Z,100981.06
2019-02-20T08:22:11.493Z,100982.50
2019-02-20T08:23:18.716Z,100983.92
2019-02-20T08:24:26.841Z,100985.84
2019-02-20T08:25:34.025Z,100988.59
2019-02-20T08:26:41.229Z,100993.53
2019-02-20T08:27:48.270Z,100990.95
2019-02-20T08:28:55.743Z,100984.38
2019-02-20T08:30:03.707Z,100980.90
2019-02-20T08:31:11.689Z,100983.20
2019-02-20T08:32:19.038Z,100987.62
2019-02-20T08:33:25.833Z,100985.51
2019-02-20T08:34:33.117Z,101009.29
2019-02-20T08:35:39.794Z,100990.41
2019-02-20T08:36:46.851Z,100998.88
2019-02-20T08:37:53.178Z,100997.23
2019-02-20T08:39:00.730Z,100993.05
2019-02-20T08:40:14.160Z,100989.28
2019-02-20T08:41:19.883Z,100987.67
2019-02-20T08:42:26.241Z,100986.82
2019-02-20T08:43:34.182Z,100993.03
2019-02-20T08:44:39.990Z,100986.54
2019-02-20T08:45:46.813Z,100986.58
2019-02-20T08:46:54.808Z,100986.53
2019-02-20T08:48:00.808Z,100984.32
2019-02-20T08:49:07.548Z,100986.06
2019-02-20T08:50:16.766Z,100997.36
2019-02-20T08:51:22.918Z,101002.16
2019-02-20T08:52:29.795Z,101002.25
2019-02-20T08:53:36.558Z,100995.84
2019-02-20T08:54:43.029Z,100996.87
2019-02-20T08:55:49.645Z,101000.86
2019-02-20T08:56:55.426Z,100997.75
2019-02-20T08:58:04.286Z,101005.16
2019-02-20T08:59:11.438Z,101008.21
2019-02-20T09:00:17.487Z,101013.90
2019-02-20T09:01:24.678Z,101009.02
2019-02-20T09:02:32.526Z,101007.65
2019-02-20T09:03:39.106Z,101004.13
2019-02-20T09:04:47.439Z,101012.08
2019-02-20T09:05:54.479Z,101023.20
2019-02-20T09:07:00.760Z,101010.92
2019-02-20T09:08:07.599Z,101011.69
2019-02-20T09:09:15.207Z,101019.59
2019-02-20T09:10:22.979Z,101022.19
2019-02-20T09:11:29.206Z,101019.13
2019-02-20T09:12:36.158Z,101026.47
2019-02-20T09:13:42.226Z,101029.11
2019-02-20T09:14:48.646Z,101030.04
2019-02-20T09:15:55.403Z,101027.03
2019-02-20T09:17:02.639Z,101026.27
2019-02-20T09:18:08.886Z,101036.00
2019-02-20T09:19:16.567Z,101021.94
2019-02-20T09:20:22.869Z,101031.62
2019-02-20T09:21:31.099Z,101033.84
2019-02-20T09:22:36.885Z,101033.08
2019-02-20T09:23:43.608Z,101035.75
2019-02-20T09:24:51.339Z,101040.17
2019-02-20T09:25:57.523Z,101038.39
2019-02-20T09:27:04.459Z,101035.33
2019-02-20T09:28:10.738Z,101032.98
2019-02-20T09:29:16.883Z,101043.35
2019-02-20T09:30:28.624Z,101059.06
2019-02-20T09:31:31.859Z,101070.81
2019-02-20T09:32:38.239Z,101054.36
2019-02-20T09:33:44.559Z,101073.03
2019-02-20T09:34:50.378Z,101073.71
2019-02-20T09:35:56.819Z,101069.58
2019-02-20T09:37:03.481Z,101074.73
2019-02-20T09:38:10.574Z,101078.57
2019-02-20T09:39:35.086Z,101086.31
2019-02-20T09:40:41.968Z,101076.11
2019-02-20T09:41:47.866Z,101085.14
2019-02-20T09:42:56.267Z,101088.45
2019-02-20T09:44:03.339Z,101085.61
2019-02-20T09:45:12.067Z,101084.08
2019-02-20T09:46:19.794Z,101096.90
2019-02-20T09:47:28.826Z,101089.18
2019-02-20T09:48:36.265Z,101084.60
2019-02-20T09:49:43.589Z,101091.93
2019-02-20T09:50:50.687Z,101098.45
2019-02-20T09:51:56.599Z,101092.28
2019-02-20T09:53:05.107Z,101099.22
2019-02-20T09:54:17.737Z,101099.64
2019-02-20T09:55:24.160Z,101088.23
2019-02-20T09:56:30.020Z,101102.22
2019-02-20T09:57:36.500Z,101101.03
2019-02-20T09:58:42.401Z,101103.36
2019-02-20T09:59:49.439Z,101101.25
2019-02-20T10:00:55.542Z,101105.69
2019-02-20T10:02:02.148Z,101093.97
2019-02-20T10:03:07.887Z,101089.30
2019-02-20T10:04:15.427Z,101094.63
2019-02-20T10:05:22.799Z,101099.05
2019-02-20T10:06:28.640Z,101094.73
2019-02-20T10:07:35.527Z,101091.37
2019-02-20T10:09:05.970Z,101094.53
2019-02-20T10:10:13.688Z,101092.75
2019-02-20T10:11:19.487Z,101101.84
2019-02-20T10:12:25.347Z,101091.75
2019-02-20T10:13:31.895Z,101098.31
2019-02-20T10:14:40.345Z,101100.05
2019-02-20T10:15:48.809Z,101099.11
2019-02-20T10:16:56.142Z,101081.97
2019-02-20T10:18:05.453Z,101092.16
2019-02-20T10:19:14.800Z,101098.00
2019-02-20T10:20:23.127Z,101096.91
2019-02-20T10:21:30.039Z,101097.03
2019-02-20T10:22:36.003Z,101099.52
2019-02-20T10:23:42.220Z,101098.94
2019-02-20T10:24:48.846Z,101102.69
2019-02-20T10:26:00.752Z,101100.21
2019-02-20T10:27:05.519Z,101092.58
2019-02-20T10:28:11.407Z,101107.36
2019-02-20T10:29:18.520Z,101097.58
2019-02-20T10:30:25.469Z,101096.89
2019-02-20T10:31:31.389Z,101099.75
2019-02-20T10:32:37.226Z,101104.27
2019-02-20T10:33:44.467Z,101104.36
2019-02-20T10:35:12.273Z,101098.20
2019-02-20T10:36:19.512Z,101095.22
2019-02-20T10:37:26.188Z,101095.65
2019-02-20T10:38:33.207Z,101104.45
2019-02-20T10:39:40.703Z,101100.49
2019-02-20T10:40:46.795Z,101100.97
2019-02-20T10:41:53.446Z,101101.05
2019-02-20T10:43:00.038Z,101100.68
2019-02-20T10:44:06.016Z,101105.14
2019-02-20T10:45:14.124Z,101098.17
2019-02-20T10:46:20.718Z,101108.72
2019-02-20T10:47:27.233Z,101108.80
2019-02-20T10:48:33.817Z,101106.21
2019-02-20T10:49:41.478Z,101119.44
2019-02-20T10:50:47.685Z,101126.08
2019-02-20T10:51:54.158Z,101114.72
2019-02-20T10:53:02.400Z,101109.53
2019-02-20T10:54:08.537Z,101103.83
2019-02-20T10:55:14.273Z,101114.03
2019-02-20T10:56:20.073Z,101121.98
2019-02-20T10:57:25.888Z,101115.39
2019-02-20T10:58:31.964Z,101113.52
2019-02-20T10:59:37.905Z,101109.83
2019-02-20T11:00:44.769Z,101107.14
2019-02-20T11:01:50.737Z,101120.71
2019-02-20T11:02:56.857Z,101125.18
2019-02-20T11:04:03.643Z,101112.77
2019-02-20T11:05:09.524Z,101117.09
2019-02-20T11:06:17.028Z,101132.44
2019-02-20T11:07:23.785Z,101118.75
2019-02-20T11:08:30.604Z,101121.86
2019-02-20T11:09:36.800Z,101128.91
2019-02-20T11:10:43.138Z,101118.28
2019-02-20T11:11:49.377Z,101119.64
2019-02-20T11:12:55.190Z,101125.77
2019-02-20T11:14:00.944Z,101125.77
2019-02-20T11:15:08.244Z,101134.43
2019-02-20T11:16:14.864Z,101124.73
2019-02-20T11:17:21.241Z,101131.80
2019-02-20T11:18:27.198Z,101124.40
2019-02-20T11:19:34.065Z,101137.11
2019-02-20T11:20:48.270Z,101125.34
2019-02-20T11:21:48.177Z,101126.70
2019-02-20T11:22:54.865Z,101121.98
2019-02-20T11:24:01.260Z,101129.18
2019-02-20T11:25:12.879Z,101134.53
2019-02-20T11:26:50.368Z,101133.30
2019-02-20T11:27:48.267Z,101135.52
2019-02-20T11:28:54.997Z,101134.11
2019-02-20T11:30:02.165Z,101137.56
2019-02-20T11:31:09.937Z,101137.47
2019-02-20T11:32:18.177Z,101140.45
2019-02-20T11:33:25.079Z,101140.02
2019-02-20T11:34:31.159Z,101140.02
2019-02-20T11:35:39.246Z,101141.42
2019-02-20T11:36:47.045Z,101148.52
2019-02-20T11:37:55.145Z,101145.89
2019-02-20T11:39:02.248Z,101148.02
2019-02-20T11:40:12.886Z,101145.76
2019-02-20T11:41:19.838Z,101146.98
2019-02-20T11:42:26.277Z,101152.69
2019-02-20T11:43:33.046Z,101150.05
2019-02-20T11:44:39.290Z,101149.72
2019-02-20T11:45:45.997Z,101138.79
2019-02-20T11:46:52.822Z,101144.48
2019-02-20T11:47:59.819Z,101148.82
2019-02-20T11:49:07.867Z,101146.61
2019-02-20T11:50:13.782Z,101151.97
2019-02-20T11:51:21.744Z,101148.86
2019-02-20T11:52:28.114Z,101130.88
2019-02-20T11:53:37.286Z,101146.70
2019-02-20T11:54:41.978Z,101143.21
2019-02-20T11:55:49.766Z,101155.20
2019-02-20T11:56:56.518Z,101142.07
2019-02-20T11:58:03.437Z,101147.34
2019-02-20T11:59:09.206Z,101146.83
2019-02-20T12:00:19.760Z,101146.91
2019-02-20T12:01:26.405Z,101148.66
2019-02-20T12:02:37.461Z,101150.06
2019-02-20T12:03:40.966Z,101139.98
2019-02-20T12:04:47.125Z,101148.79
2019-02-20T12:05:53.178Z,101149.73
2019-02-20T12:07:02.286Z,101152.41
2019-02-20T12:08:10.105Z,101153.77
2019-02-20T12:09:16.794Z,101153.69
2019-02-20T12:10:23.619Z,101155.00
2019-02-20T12:11:30.559Z,101158.16
2019-02-20T12:12:37.105Z,101161.76
2019-02-20T12:13:44.121Z,101163.89
2019-02-20T12:14:50.684Z,101154.63
2019-02-20T12:15:57.954Z,101161.80
2019-02-20T12:17:04.019Z,101155.30
2019-02-20T12:18:17.136Z,101153.16
2019-02-20T12:19:18.366Z,101164.14
2019-02-20T12:20:24.498Z,101166.44
2019-02-20T12:21:30.758Z,101164.70
2019-02-20T12:22:37.878Z,101173.23
2019-02-20T12:23:43.546Z,101171.53
2019-02-20T12:24:49.685Z,101186.47
2019-02-20T12:25:56.678Z,101182.44
2019-02-20T12:27:02.959Z,101191.67
2019-02-20T12:28:09.485Z,101186.73
2019-02-20T12:29:17.726Z,101187.97
2019-02-20T12:30:23.959Z,101185.34
2019-02-20T12:31:52.653Z,101185.64
2019-02-20T12:32:59.049Z,101179.04
2019-02-20T12:34:07.419Z,101187.84
2019-02-20T12:35:13.639Z,101185.13
2019-02-20T12:36:19.341Z,101193.84
2019-02-20T12:37:26.301Z,101189.04
2019-02-20T12:38:37.171Z,101185.92
2019-02-20T12:39:44.058Z,101189.37
2019-02-20T12:40:52.459Z,101196.87
2019-02-20T12:41:59.427Z,101186.74
2019-02-20T12:43:05.299Z,101187.98
2019-02-20T12:44:11.247Z,101200.69
2019-02-20T12:45:18.581Z,101205.88
2019-02-20T12:46:47.696Z,101198.30
2019-02-20T12:47:54.406Z,101204.89
2019-02-20T12:49:01.099Z,101204.09
2019-02-20T12:50:13.689Z,101205.50
2019-02-20T12:51:20.279Z,101206.86